Time;durP1;ratioP1;P1;durP2;ratioP2;P2;SDS_P1;SDS_P2;PMS_P1;PMS_P2;Temp;Humidity;BMP_temperature;BMP_pressure;BME280_temperature;BME280_humidity;BME280_pressure;Samples;Min_cycle;Max_cycle;Signal;HPM_P1;HPM_P2
2024/04/01 00:03:39;;;;;;;37.30;7.50;;;;;;;;;;103739;1294;545373;-70
2024/04/01 00:07:13;;;;;;;37.20;7.20;;;;;;;;;;103964;1286;545491;-72
2024/04/01 00:10:56;;;;;;;40.10;7.40;;;;;;;;;;103753;1291;545629;-71
2024/04/01 00:14:28;;;;;;;46.60;8.00;;;;;;;;;;104387;1282;545041;-70
2024/04/01 00:18:16;;;;;;;45.50;7.80;;;;;;;;;;103749;1291;545216;-70
2024/04/01 00:21:57;;;;;;;39.00;7.00;;;;;;;;;;103758;1289;545867;-71
2024/04/01 00:25:21;;;;;;;35.60;6.80;;;;;;;;;;103996;1289;545411;-73
2024/04/01 00:29:01;;;;;;;31.40;7.40;;;;;;;;;;103798;1289;544974;-70
2024/04/01 00:32:36;;;;;;;34.20;7.50;;;;;;;;;;103925;1292;545423;-70
2024/04/01 00:36:13;;;;;;;33.30;6.20;;;;;;;;;;103602;1292;545483;-70
2024/04/01 00:39:51;;;;;;;29.00;4.90;;;;;;;;;;103810;1289;545586;-71
2024/04/01 00:43:28;;;;;;;29.80;5.40;;;;;;;;;;104534;1288;545073;-70
2024/04/01 00:47:06;;;;;;;28.60;4.70;;;;;;;;;;103729;1289;545433;-71
2024/04/01 00:50:55;;;;;;;34.10;4.20;;;;;;;;;;103707;1292;544945;-72
2024/04/01 00:54:21;;;;;;;26.10;4.40;;;;;;;;;;103994;1286;544944;-71
2024/04/01 00:57:59;;;;;;;23.60;4.20;;;;;;;;;;103767;1292;544836;-71
2024/04/01 01:01:36;;;;;;;24.00;4.70;;;;;;;;;;103764;1289;545638;-68
2024/04/01 01:05:15;;;;;;;24.60;4.50;;;;;;;;;;103710;1294;545321;-70
2024/04/01 01:08:57;;;;;;;24.50;4.70;;;;;;;;;;104024;1288;545007;-70
2024/04/01 01:12:28;;;;;;;28.90;5.30;;;;;;;;;;105714;1291;547519;-72
2024/04/01 01:16:05;;;;;;;29.70;5.20;;;;;;;;;;104049;1290;544984;-69
2024/04/01 01:19:46;;;;;;;25.90;4.60;;;;;;;;;;103917;1290;545077;-69
2024/04/01 01:23:20;;;;;;;21.10;4.10;;;;;;;;;;103906;1285;544975;-71
2024/04/01 01:26:57;;;;;;;26.10;4.20;;;;;;;;;;103729;1292;544762;-71
2024/04/01 01:30:35;;;;;;;22.40;3.30;;;;;;;;;;103826;1292;544698;-71
2024/04/01 01:34:13;;;;;;;21.30;3.70;;;;;;;;;;103757;1292;545229;-71
2024/04/01 01:38:16;;;;;;;24.80;3.90;;;;;;;;;;103839;1290;544739;-71
2024/04/01 01:41:34;;;;;;;24.40;3.40;;;;;;;;;;103609;1289;546589;-72
2024/04/01 01:45:06;;;;;;;20.10;3.10;;;;;;;;;;103849;1289;545409;-76
2024/04/01 01:48:43;;;;;;;23.30;3.50;;;;;;;;;;103805;1289;545643;-72
2024/04/01 01:52:20;;;;;;;20.20;3.40;;;;;;;;;;103810;1292;544898;-69
2024/04/01 01:55:58;;;;;;;19.40;4.10;;;;;;;;;;103708;1291;544906;-69
2024/04/01 01:59:37;;;;;;;19.60;3.60;;;;;;;;;;103830;1292;544833;-73
2024/04/01 02:03:13;;;;;;;15.00;3.20;;;;;;;;;;103854;1291;544962;-73
2024/04/01 02:06:51;;;;;;;20.90;3.60;;;;;;;;;;103839;1290;545024;-72
2024/04/01 02:10:27;;;;;;;20.40;3.30;;;;;;;;;;103862;1292;544996;-72
2024/04/01 02:14:06;;;;;;;17.20;3.20;;;;;;;;;;103961;1293;545119;-70
2024/04/01 02:17:46;;;;;;;17.70;3.30;;;;;;;;;;103639;1293;545567;-72
2024/04/01 02:21:20;;;;;;;16.90;3.50;;;;;;;;;;103732;1291;544930;-73
2024/04/01 02:25:04;;;;;;;16.40;3.10;;;;;;;;;;103734;1289;544963;-70
2024/04/01 02:28:38;;;;;;;20.80;3.50;;;;;;;;;;103524;1291;546681;-70
2024/04/01 02:32:13;;;;;;;20.60;3.00;;;;;;;;;;103807;1294;545535;-73
2024/04/01 02:35:50;;;;;;;18.00;2.80;;;;;;;;;;104526;1285;545283;-70
2024/04/01 02:39:31;;;;;;;15.20;3.10;;;;;;;;;;103797;1292;545665;-70
2024/04/01 02:43:05;;;;;;;18.30;3.40;;;;;;;;;;103755;1289;545182;-71
2024/04/01 02:46:43;;;;;;;18.80;3.40;;;;;;;;;;103782;1292;544824;-70
2024/04/01 02:50:21;;;;;;;22.00;2.90;;;;;;;;;;103869;1289;545058;-70
2024/04/01 02:53:58;;;;;;;16.60;2.80;;;;;;;;;;103736;1292;544867;-72
2024/04/01 02:57:35;;;;;;;15.70;2.90;;;;;;;;;;103663;1295;545661;-70
2024/04/01 03:01:12;;;;;;;16.00;2.60;;;;;;;;;;103985;1289;545013;-71
2024/04/01 03:04:50;;;;;;;17.50;3.70;;;;;;;;;;103996;1289;544726;-68
2024/04/01 03:08:27;;;;;;;14.40;2.80;;;;;;;;;;103805;1288;544799;-73
2024/04/01 03:12:16;;;;;;;16.30;2.30;;;;;;;;;;103933;1288;544746;-71
2024/04/01 03:15:44;;;;;;;18.60;3.30;;;;;;;;;;103812;1292;545003;-68
2024/04/01 03:19:21;;;;;;;14.00;2.50;;;;;;;;;;103526;1291;545577;-70
2024/04/01 03:22:57;;;;;;;16.40;2.90;;;;;;;;;;103783;1289;544775;-72
2024/04/01 03:26:35;;;;;;;15.10;2.70;;;;;;;;;;103805;1289;545228;-72
2024/04/01 03:30:11;;;;;;;18.40;2.50;;;;;;;;;;103774;1292;545596;-70
2024/04/01 03:33:50;;;;;;;18.00;2.40;;;;;;;;;;103833;1292;546108;-69
2024/04/01 03:37:27;;;;;;;14.20;2.20;;;;;;;;;;103736;1290;544953;-73
2024/04/01 03:41:04;;;;;;;15.20;2.80;;;;;;;;;;103828;1289;545246;-69
2024/04/01 03:44:42;;;;;;;12.00;2.30;;;;;;;;;;103818;1289;545058;-73
2024/04/01 03:48:20;;;;;;;15.20;2.80;;;;;;;;;;103601;1291;544787;-71
2024/04/01 03:52:03;;;;;;;14.60;2.40;;;;;;;;;;104449;1283;544945;-69
2024/04/01 03:55:35;;;;;;;15.30;2.70;;;;;;;;;;103742;1292;545098;-70
2024/04/01 03:59:12;;;;;;;12.10;2.30;;;;;;;;;;103803;1289;544762;-69
2024/04/01 04:02:51;;;;;;;11.80;2.00;;;;;;;;;;103712;1296;545985;-69
2024/04/01 04:06:32;;;;;;;15.20;2.20;;;;;;;;;;103785;1288;545073;-70
2024/04/01 04:10:05;;;;;;;12.20;2.20;;;;;;;;;;103644;1292;545332;-71
2024/04/01 04:13:38;;;;;;;12.10;2.30;;;;;;;;;;103922;1289;545330;-69
2024/04/01 04:17:20;;;;;;;17.40;3.20;;;;;;;;;;103777;1301;544847;-73
2024/04/01 04:20:57;;;;;;;13.70;3.70;;;;;;;;;;103830;1289;545445;-70
2024/04/01 04:24:42;;;;;;;16.40;3.60;;;;;;;;;;103734;1291;545599;-72
2024/04/01 04:28:12;;;;;;;11.50;2.90;;;;;;;;;;103653;1291;545764;-70
2024/04/01 04:32:07;;;;;;;13.50;2.80;;;;;;;;;;103950;1289;544946;-70
2024/04/01 04:35:27;;;;;;;15.10;2.90;;;;;;;;;;103748;1289;545087;-70
2024/04/01 04:39:19;;;;;;;13.60;2.80;;;;;;;;;;103807;1292;545041;-72
2024/04/01 04:43:02;;;;;;;13.60;2.40;;;;;;;;;;103814;1289;545394;-71
2024/04/01 04:46:20;;;;;;;14.90;2.50;;;;;;;;;;104038;1289;544791;-74
2024/04/01 04:50:06;;;;;;;16.40;2.90;;;;;;;;;;103822;1289;545378;-71
2024/04/01 04:53:51;;;;;;;;;;;;;;;;;;;;;
2024/04/01 04:57:12;;;;;;;13.10;2.50;;;;;;;;;;103701;1291;545467;-70
2024/04/01 05:01:12;;;;;;;13.70;2.50;;;;;;;;;;103736;1295;544767;-75
2024/04/01 05:04:29;;;;;;;12.10;2.30;;;;;;;;;;103759;1295;545099;-73
2024/04/01 05:08:17;;;;;;;12.30;2.10;;;;;;;;;;103707;1291;544896;-71
2024/04/01 05:11:41;;;;;;;14.90;2.80;;;;;;;;;;103849;1289;544984;-73
2024/04/01 05:15:19;;;;;;;13.70;2.60;;;;;;;;;;103749;1291;545455;-69
2024/04/01 05:19:00;;;;;;;14.10;2.80;;;;;;;;;;103749;1290;545636;-71
2024/04/01 05:22:31;;;;;;;14.70;2.90;;;;;;;;;;103648;1295;544985;-69
2024/04/01 05:26:13;;;;;;;14.20;2.40;;;;;;;;;;103911;1292;545260;-72
2024/04/01 05:30:03;;;;;;;18.00;4.10;;;;;;;;;;103801;1290;544930;-71
2024/04/01 05:33:33;;;;;;;16.80;4.30;;;;;;;;;;103729;1288;545531;-71
2024/04/01 05:37:13;;;;;;;14.70;3.50;;;;;;;;;;104199;1285;544903;-70
2024/04/01 05:40:41;;;;;;;13.70;3.00;;;;;;;;;;103733;1292;544935;-71
2024/04/01 05:44:20;;;;;;;13.70;2.90;;;;;;;;;;103764;1293;545068;-71
2024/04/01 05:47:57;;;;;;;15.00;2.70;;;;;;;;;;103477;1292;544808;-72
2024/04/01 05:51:35;;;;;;;13.20;2.30;;;;;;;;;;103673;1292;545156;-73
2024/04/01 05:55:19;;;;;;;14.80;2.70;;;;;;;;;;103668;1293;544798;-73
2024/04/01 05:58:50;;;;;;;12.50;2.40;;;;;;;;;;103978;1289;544958;-71
2024/04/01 06:02:29;;;;;;;13.20;2.50;;;;;;;;;;103716;1297;544990;-72
2024/04/01 06:06:01;;;;;;;15.60;3.20;;;;;;;;;;103952;1301;546223;-71
2024/04/01 06:09:55;;;;;;;;;;;;;;;;;;;;;
2024/04/01 06:13:20;;;;;;;12.90;2.80;;;;;;;;;;103777;1291;544723;-71
2024/04/01 06:17:26;;;;;;;16.00;2.70;;;;;;;;;;103685;1292;545803;-72
2024/04/01 06:20:34;;;;;;;16.20;3.00;;;;;;;;;;104084;1286;545463;-69
2024/04/01 06:24:14;;;;;;;13.20;2.30;;;;;;;;;;104535;1283;546071;-71
2024/04/01 06:27:50;;;;;;;18.90;2.60;;;;;;;;;;103636;1295;544808;-71
2024/04/01 06:31:27;;;;;;;13.90;2.70;;;;;;;;;;103631;1289;545147;-69
2024/04/01 06:35:04;;;;;;;15.40;3.00;;;;;;;;;;103601;1291;545276;-75
2024/04/01 06:39:03;;;;;;;14.10;2.80;;;;;;;;;;103749;1291;545417;-73
2024/04/01 06:42:20;;;;;;;15.30;2.90;;;;;;;;;;103696;1289;545032;-71
2024/04/01 06:46:00;;;;;;;16.00;3.30;;;;;;;;;;103614;1292;544782;-71
2024/04/01 06:49:34;;;;;;;19.80;3.40;;;;;;;;;;103962;1289;544838;-71
2024/04/01 06:53:11;;;;;;;23.90;3.10;;;;;;;;;;104061;1289;545926;-74
2024/04/01 06:56:49;;;;;;;20.80;3.30;;;;;;;;;;103732;1292;545430;-72
2024/04/01 07:00:22;;;;;;;18.00;3.50;;;;;;;;;;103744;1293;544982;-70
2024/04/01 07:04:04;;;;;;;21.30;3.40;;;;;;;;;;103752;1290;544976;-70
2024/04/01 07:07:41;;;;;;;19.30;3.30;;;;;;;;;;103629;1291;545928;-73
2024/04/01 07:11:19;;;;;;;19.30;3.80;;;;;;;;;;103780;1290;545420;-74
2024/04/01 07:14:52;;;;;;;19.60;3.60;;;;;;;;;;103940;1288;544848;-71
2024/04/01 07:18:35;;;;;;;20.70;3.80;;;;;;;;;;103851;1292;545107;-71
2024/04/01 07:22:11;;;;;;;20.20;3.70;;;;;;;;;;103747;1292;544920;-72
2024/04/01 07:25:50;;;;;;;20.80;4.00;;;;;;;;;;103785;1292;546521;-72
2024/04/01 07:29:26;;;;;;;20.00;4.40;;;;;;;;;;103841;1289;545616;-70
2024/04/01 07:33:03;;;;;;;23.20;4.40;;;;;;;;;;103857;1289;545524;-71
2024/04/01 07:37:01;;;;;;;18.30;3.50;;;;;;;;;;103584;1294;547865;-73
2024/04/01 07:40:19;;;;;;;18.50;3.50;;;;;;;;;;103763;1292;544742;-72
2024/04/01 07:43:56;;;;;;;26.40;3.90;;;;;;;;;;103851;1295;545496;-71
2024/04/01 07:47:33;;;;;;;25.80;4.60;;;;;;;;;;103860;1289;544816;-71
2024/04/01 07:51:10;;;;;;;29.40;4.90;;;;;;;;;;103785;1290;544725;-71
2024/04/01 07:54:48;;;;;;;21.60;4.20;;;;;;;;;;103867;1292;545750;-71
2024/04/01 07:58:22;;;;;;;26.20;5.30;;;;;;;;;;103694;1292;544947;-69
2024/04/01 08:02:04;;;;;;;23.70;4.70;;;;;;;;;;103549;1292;544790;-69
2024/04/01 08:05:41;;;;;;;28.70;5.00;;;;;;;;;;103754;1289;544995;-72
2024/04/01 08:09:19;;;;;;;31.50;4.60;;;;;;;;;;103738;1290;544987;-70
2024/04/01 08:12:56;;;;;;;26.80;5.20;;;;;;;;;;103683;1291;544790;-71
2024/04/01 08:16:30;;;;;;;29.00;5.50;;;;;;;;;;103851;1293;546054;-71
2024/04/01 08:20:10;;;;;;;25.00;4.70;;;;;;;;;;103802;1293;545537;-69
2024/04/01 08:23:49;;;;;;;24.60;4.90;;;;;;;;;;103841;1292;545574;-69
2024/04/01 08:27:26;;;;;;;29.60;5.40;;;;;;;;;;103856;1289;544887;-71
2024/04/01 08:31:06;;;;;;;30.60;5.40;;;;;;;;;;103679;1291;545053;-70
2024/04/01 08:34:41;;;;;;;34.30;5.20;;;;;;;;;;103775;1291;546322;-73
2024/04/01 08:38:21;;;;;;;29.30;6.10;;;;;;;;;;104037;1289;545128;-70
2024/04/01 08:42:03;;;;;;;30.90;5.80;;;;;;;;;;103605;1292;547985;-73
2024/04/01 08:45:34;;;;;;;35.50;7.20;;;;;;;;;;103818;1289;544934;-71
2024/04/01 08:49:11;;;;;;;30.30;6.00;;;;;;;;;;103869;1289;545772;-71
2024/04/01 08:52:53;;;;;;;35.00;6.10;;;;;;;;;;103645;1294;548038;-70
2024/04/01 08:56:42;;;;;;;36.70;6.50;;;;;;;;;;103764;1292;544951;-69
2024/04/01 09:00:04;;;;;;;36.80;5.40;;;;;;;;;;104070;1288;545720;-70
2024/04/01 09:03:40;;;;;;;31.20;6.10;;;;;;;;;;103782;1301;544853;-71
2024/04/01 09:07:15;;;;;;;38.10;6.40;;;;;;;;;;103779;1292;545075;-73
2024/04/01 09:10:55;;;;;;;30.70;6.70;;;;;;;;;;103753;1292;544971;-71
2024/04/01 09:14:33;;;;;;;36.60;6.30;;;;;;;;;;103740;1292;545041;-71
2024/04/01 09:18:11;;;;;;;38.60;6.40;;;;;;;;;;103991;1289;544800;-70
2024/04/01 09:21:51;;;;;;;37.30;6.10;;;;;;;;;;103800;1289;544953;-72
2024/04/01 09:25:28;;;;;;;36.90;6.20;;;;;;;;;;103778;1292;544910;-69
2024/04/01 09:29:04;;;;;;;32.90;6.80;;;;;;;;;;103860;1289;544715;-70
2024/04/01 09:32:40;;;;;;;31.30;6.00;;;;;;;;;;104274;1286;544767;-71
2024/04/01 09:36:18;;;;;;;40.60;6.70;;;;;;;;;;103705;1292;546097;-71
2024/04/01 09:39:55;;;;;;;33.60;7.00;;;;;;;;;;103841;1289;545972;-72
2024/04/01 09:43:33;;;;;;;34.00;7.50;;;;;;;;;;103624;1305;545434;-70
2024/04/01 09:47:11;;;;;;;31.90;6.20;;;;;;;;;;103840;1292;545475;-71
2024/04/01 09:50:45;;;;;;;34.40;7.20;;;;;;;;;;104059;1289;544858;-71
2024/04/01 09:54:25;;;;;;;31.50;6.60;;;;;;;;;;103727;1291;546225;-71
2024/04/01 09:58:15;;;;;;;35.20;7.00;;;;;;;;;;103906;1289;544746;-73
2024/04/01 10:01:46;;;;;;;31.10;6.30;;;;;;;;;;103678;1298;545062;-71
2024/04/01 10:05:24;;;;;;;42.90;9.10;;;;;;;;;;103675;1292;545003;-73
2024/04/01 10:09:13;;;;;;;43.10;10.00;;;;;;;;;;103717;1292;545649;-71
2024/04/01 10:12:36;;;;;;;34.60;7.90;;;;;;;;;;103797;1290;544933;-71
2024/04/01 10:16:20;;;;;;;38.40;8.50;;;;;;;;;;103849;1289;544753;-71
2024/04/01 10:19:51;;;;;;;39.50;7.60;;;;;;;;;;103927;1295;545606;-70
2024/04/01 10:23:25;;;;;;;38.50;6.90;;;;;;;;;;103785;1292;545597;-72
2024/04/01 10:27:18;;;;;;;31.10;6.20;;;;;;;;;;103740;1290;545610;-72
2024/04/01 10:30:43;;;;;;;35.80;6.40;;;;;;;;;;103760;1291;544919;-71
2024/04/01 10:34:35;;;;;;;28.70;6.20;;;;;;;;;;103886;1290;544914;-70
2024/04/01 10:38:32;;;;;;;33.60;7.70;;;;;;;;;;103834;1289;546273;-72
2024/04/01 10:41:42;;;;;;;30.70;6.50;;;;;;;;;;103794;1290;544747;-71
2024/04/01 10:45:36;;;;;;;29.20;5.60;;;;;;;;;;103644;1292;544930;-73
2024/04/01 10:48:57;;;;;;;25.80;5.40;;;;;;;;;;103773;1291;544787;-74
2024/04/01 10:52:39;;;;;;;26.70;5.50;;;;;;;;;;104065;1290;545658;-71
2024/04/01 10:56:26;;;;;;;29.40;5.40;;;;;;;;;;103763;1292;545489;-70
2024/04/01 10:59:55;;;;;;;30.30;6.20;;;;;;;;;;103867;1293;544925;-71
2024/04/01 11:03:30;;;;;;;25.30;5.00;;;;;;;;;;103792;1295;544771;-71
2024/04/01 11:06:58;;;;;;;25.90;4.90;;;;;;;;;;103861;1289;545179;-72
2024/04/01 11:10:33;;;;;;;28.20;5.40;;;;;;;;;;103937;1289;545685;-72
2024/04/01 11:14:12;;;;;;;25.60;4.90;;;;;;;;;;103679;1292;545241;-71
2024/04/01 11:17:51;;;;;;;26.90;5.30;;;;;;;;;;103808;1289;544954;-70
2024/04/01 11:21:33;;;;;;;24.00;5.50;;;;;;;;;;103678;1295;544802;-70
2024/04/01 11:25:22;;;;;;;26.90;5.80;;;;;;;;;;103856;1289;545183;-72
2024/04/01 11:29:08;;;;;;;24.10;5.10;;;;;;;;;;103613;1292;545906;-72
2024/04/01 11:32:20;;;;;;;33.90;5.50;;;;;;;;;;103764;1289;544819;-71
2024/04/01 11:35:57;;;;;;;28.60;5.40;;;;;;;;;;103903;1289;545157;-72
2024/04/01 11:39:36;;;;;;;22.90;5.20;;;;;;;;;;103699;1290;544944;-69
2024/04/01 11:43:12;;;;;;;25.10;4.80;;;;;;;;;;104598;1282;544942;-71
2024/04/01 11:46:44;;;;;;;23.40;4.40;;;;;;;;;;103986;1292;545616;-69
2024/04/01 11:50:24;;;;;;;31.00;5.10;;;;;;;;;;103851;1289;544958;-68
2024/04/01 11:54:03;;;;;;;27.20;5.10;;;;;;;;;;103573;1298;545166;-74
2024/04/01 11:57:39;;;;;;;32.30;5.70;;;;;;;;;;103767;1292;545447;-73
2024/04/01 12:01:17;;;;;;;27.60;5.00;;;;;;;;;;103819;1291;544917;-72
2024/04/01 12:04:59;;;;;;;26.20;5.10;;;;;;;;;;103694;1291;544732;-72
2024/04/01 12:08:30;;;;;;;25.40;5.50;;;;;;;;;;103874;1292;545615;-70
2024/04/01 12:12:10;;;;;;;27.80;5.30;;;;;;;;;;103671;1292;544444;-71
2024/04/01 12:15:48;;;;;;;25.70;6.20;;;;;;;;;;103691;1291;546563;-74
2024/04/01 12:30:27;;;;;;;35.90;5.70;;;;;;;;;;105968;1280;553412;-73
2024/04/01 12:44:14;;;;;;;38.60;6.50;;;;;;;;;;104588;1285;553475;-68
2024/04/01 12:47:09;;;;;;;30.80;5.50;;;;;;;;;;103632;1292;545049;-70
2024/04/01 12:51:01;;;;;;;31.10;5.50;;;;;;;;;;103862;1291;544984;-70
2024/04/01 12:54:49;;;;;;;31.20;5.60;;;;;;;;;;104972;1295;545001;-69
2024/04/01 12:58:16;;;;;;;38.80;6.10;;;;;;;;;;103807;1289;545252;-71
2024/04/01 13:01:45;;;;;;;33.40;6.10;;;;;;;;;;103710;1292;545058;-68
2024/04/01 13:05:25;;;;;;;30.80;6.30;;;;;;;;;;105005;1291;545412;-70
2024/04/01 13:08:57;;;;;;;32.30;6.00;;;;;;;;;;103702;1292;545206;-70
2024/04/01 13:12:31;;;;;;;35.10;6.30;;;;;;;;;;103841;1288;545561;-69
2024/04/01 13:16:21;;;;;;;36.40;5.80;;;;;;;;;;103717;1289;544824;-70
2024/04/01 13:19:47;;;;;;;30.30;6.20;;;;;;;;;;105686;1292;545306;-71
2024/04/01 14:01:43;;;;;;;38.90;7.40;;;;;;;;;;104740;1282;545488;-69
2024/04/01 14:04:40;;;;;;;39.20;6.30;;;;;;;;;;103957;1288;545142;-70
2024/04/01 14:08:41;;;;;;;35.50;6.50;;;;;;;;;;103955;1287;544955;-71
2024/04/01 14:11:58;;;;;;;35.20;6.30;;;;;;;;;;103668;1291;544946;-74
2024/04/01 14:15:32;;;;;;;31.40;6.70;;;;;;;;;;103745;1292;544850;-70
2024/04/01 14:19:28;;;;;;;32.70;6.60;;;;;;;;;;103701;1293;544931;-70
2024/04/01 14:22:52;;;;;;;35.00;7.50;;;;;;;;;;103940;1289;544870;-71
2024/04/01 14:26:29;;;;;;;43.70;6.80;;;;;;;;;;103723;1289;545228;-77
2024/04/01 14:30:07;;;;;;;37.70;6.60;;;;;;;;;;103806;1289;544915;-70
2024/04/01 14:33:44;;;;;;;33.20;6.30;;;;;;;;;;103692;1291;545956;-71
2024/04/01 14:37:18;;;;;;;35.60;6.20;;;;;;;;;;104143;1286;545081;-70
2024/04/01 14:40:58;;;;;;;32.70;6.80;;;;;;;;;;104101;1288;545604;-71
2024/04/01 14:44:36;;;;;;;36.10;6.60;;;;;;;;;;103721;1295;545763;-68
2024/04/01 14:48:14;;;;;;;45.60;7.80;;;;;;;;;;103680;1293;545440;-68
2024/04/01 14:51:51;;;;;;;46.40;7.90;;;;;;;;;;103514;1292;545448;-69
2024/04/01 14:55:30;;;;;;;33.80;6.40;;;;;;;;;;103738;1292;545026;-70
2024/04/01 14:59:02;;;;;;;40.90;7.90;;;;;;;;;;103738;1302;545460;-74
2024/04/01 15:02:43;;;;;;;40.80;7.10;;;;;;;;;;104384;1283;544777;-71
2024/04/01 15:06:22;;;;;;;44.20;7.90;;;;;;;;;;103682;1292;545647;-69
2024/04/01 15:10:06;;;;;;;40.80;7.20;;;;;;;;;;103524;1295;545372;-76
2024/04/01 15:13:42;;;;;;;36.00;7.20;;;;;;;;;;103848;1292;545047;-71
2024/04/01 15:17:14;;;;;;;39.30;7.30;;;;;;;;;;103561;1292;545562;-72
2024/04/01 15:20:48;;;;;;;37.50;7.10;;;;;;;;;;103722;1289;544805;-77
2024/04/01 15:24:28;;;;;;;36.70;7.00;;;;;;;;;;104008;1289;544966;-72
2024/04/01 15:28:06;;;;;;;34.10;6.50;;;;;;;;;;103462;1294;545045;-72
2024/04/01 15:31:44;;;;;;;25.00;5.20;;;;;;;;;;103866;1289;544965;-72
2024/04/01 15:35:21;;;;;;;19.20;3.60;;;;;;;;;;103690;1292;544992;-74
2024/04/01 15:38:58;;;;;;;12.70;2.90;;;;;;;;;;103830;1289;545123;-75
2024/04/01 15:42:36;;;;;;;12.10;2.60;;;;;;;;;;103817;1289;545011;-71
2024/04/01 15:46:13;;;;;;;16.10;3.30;;;;;;;;;;103817;1294;544769;-71
2024/04/01 15:49:51;;;;;;;16.60;3.00;;;;;;;;;;104058;1290;544904;-73
2024/04/01 15:53:28;;;;;;;16.70;3.50;;;;;;;;;;103774;1296;546032;-74
2024/04/01 15:57:06;;;;;;;14.50;3.40;;;;;;;;;;103701;1289;544757;-73
2024/04/01 16:00:44;;;;;;;14.30;3.00;;;;;;;;;;103958;1289;544783;-70
2024/04/01 16:04:27;;;;;;;11.20;2.80;;;;;;;;;;103645;1297;547989;-71
2024/04/01 16:07:57;;;;;;;13.90;2.70;;;;;;;;;;103813;1289;544881;-73
2024/04/01 16:11:36;;;;;;;12.40;2.80;;;;;;;;;;103710;1303;544954;-72
2024/04/01 16:15:12;;;;;;;11.30;2.60;;;;;;;;;;103750;1290;547137;-71
2024/04/01 16:18:55;;;;;;;12.50;2.80;;;;;;;;;;103753;1291;544854;-72
2024/04/01 16:22:28;;;;;;;19.10;3.10;;;;;;;;;;103630;1292;545936;-71
2024/04/01 16:26:10;;;;;;;14.60;2.90;;;;;;;;;;103785;1291;544847;-77
2024/04/01 16:29:44;;;;;;;11.40;2.10;;;;;;;;;;103818;1289;544902;-73
2024/04/01 16:33:16;;;;;;;11.60;2.70;;;;;;;;;;104369;1295;544716;-72
2024/04/01 16:36:58;;;;;;;9.10;2.20;;;;;;;;;;103801;1289;544970;-71
2024/04/01 16:40:35;;;;;;;9.60;1.90;;;;;;;;;;103863;1290;545038;-70
2024/04/01 16:44:13;;;;;;;5.10;1.40;;;;;;;;;;103797;1289;544959;-74
2024/04/01 16:47:50;;;;;;;8.10;2.00;;;;;;;;;;103786;1291;544768;-71
2024/04/01 16:51:28;;;;;;;8.70;1.70;;;;;;;;;;103762;1290;544732;-73
2024/04/01 16:55:05;;;;;;;10.00;2.50;;;;;;;;;;103743;1293;546060;-71
2024/04/01 16:58:45;;;;;;;9.30;1.80;;;;;;;;;;103862;1291;545057;-71
2024/04/01 17:02:21;;;;;;;7.40;1.80;;;;;;;;;;103921;1289;545084;-71
2024/04/01 17:05:58;;;;;;;10.00;2.10;;;;;;;;;;103742;1293;544746;-71
2024/04/01 17:09:34;;;;;;;7.80;1.70;;;;;;;;;;103823;1296;544764;-73
2024/04/01 17:13:16;;;;;;;8.30;1.60;;;;;;;;;;103793;1289;544930;-74
2024/04/01 17:16:53;;;;;;;11.50;2.40;;;;;;;;;;104028;1287;545053;-71
2024/04/01 17:20:28;;;;;;;12.70;2.00;;;;;;;;;;103676;1294;545102;-70
2024/04/01 17:24:09;;;;;;;8.00;2.20;;;;;;;;;;104200;1286;545065;-70
2024/04/01 17:27:44;;;;;;;8.40;1.90;;;;;;;;;;103820;1289;545049;-70
2024/04/01 17:31:21;;;;;;;7.50;2.20;;;;;;;;;;103977;1288;545860;-70
2024/04/01 17:34:57;;;;;;;8.00;2.30;;;;;;;;;;103763;1290;544744;-71
2024/04/01 17:38:35;;;;;;;8.00;2.70;;;;;;;;;;103710;1292;544895;-75
2024/04/01 17:42:13;;;;;;;8.00;2.60;;;;;;;;;;103438;1295;544842;-75
2024/04/01 17:45:50;;;;;;;8.00;2.70;;;;;;;;;;103596;1292;545151;-71
2024/04/01 17:49:28;;;;;;;12.10;5.00;;;;;;;;;;103660;1291;545060;-70
2024/04/01 17:53:07;;;;;;;8.30;2.80;;;;;;;;;;103690;1295;545941;-72
2024/04/01 17:56:39;;;;;;;8.80;3.00;;;;;;;;;;104007;1289;545010;-70
2024/04/01 18:00:21;;;;;;;10.60;3.30;;;;;;;;;;103972;1289;544708;-70
2024/04/01 18:03:58;;;;;;;8.90;2.30;;;;;;;;;;103789;1292;546591;-71
2024/04/01 18:07:55;;;;;;;8.00;3.00;;;;;;;;;;103693;1291;549463;-76
2024/04/01 18:11:14;;;;;;;8.70;3.90;;;;;;;;;;103632;1291;545621;-70
2024/04/01 18:14:50;;;;;;;8.20;3.50;;;;;;;;;;103732;1289;545034;-71
2024/04/01 18:18:28;;;;;;;8.50;3.30;;;;;;;;;;103745;1289;544862;-69
2024/04/01 18:22:02;;;;;;;11.00;4.10;;;;;;;;;;103666;1295;545122;-70
2024/04/01 18:25:46;;;;;;;16.40;7.50;;;;;;;;;;103846;1291;545182;-70
2024/04/01 18:29:20;;;;;;;20.70;10.80;;;;;;;;;;104084;1286;545255;-71
2024/04/01 18:32:57;;;;;;;13.10;5.20;;;;;;;;;;103886;1289;545032;-71
2024/04/01 18:36:35;;;;;;;13.10;5.10;;;;;;;;;;103941;1288;545904;-74
2024/04/01 18:40:12;;;;;;;16.00;8.20;;;;;;;;;;103806;1291;545847;-71
2024/04/01 18:43:54;;;;;;;13.00;6.00;;;;;;;;;;103830;1292;545231;-74
2024/04/01 18:47:23;;;;;;;13.60;6.00;;;;;;;;;;104041;1300;544967;-69
2024/04/01 18:51:08;;;;;;;11.10;6.00;;;;;;;;;;103620;1292;545470;-71
2024/04/01 18:54:39;;;;;;;9.00;3.40;;;;;;;;;;103796;1292;545991;-70
2024/04/01 18:58:16;;;;;;;7.50;2.90;;;;;;;;;;103929;1289;544970;-71
2024/04/01 19:01:57;;;;;;;6.50;3.00;;;;;;;;;;103949;1291;545544;-71
2024/04/01 19:05:35;;;;;;;6.90;2.60;;;;;;;;;;103820;1289;544993;-73
2024/04/01 19:09:08;;;;;;;7.30;2.90;;;;;;;;;;103971;1289;544952;-71
2024/04/01 19:12:50;;;;;;;7.10;2.10;;;;;;;;;;103518;1295;544732;-70
2024/04/01 19:16:27;;;;;;;5.60;1.90;;;;;;;;;;103972;1291;545209;-73
2024/04/01 19:20:01;;;;;;;4.50;1.50;;;;;;;;;;103846;1289;544753;-71
2024/04/01 19:23:42;;;;;;;3.90;1.30;;;;;;;;;;103698;1291;545445;-71
2024/04/01 19:27:20;;;;;;;5.00;1.70;;;;;;;;;;103579;1295;544988;-70
2024/04/01 19:30:57;;;;;;;7.50;2.50;;;;;;;;;;104018;1288;545773;-71
2024/04/01 19:34:36;;;;;;;6.70;2.40;;;;;;;;;;103552;1292;545309;-72
2024/04/01 19:38:12;;;;;;;6.30;2.00;;;;;;;;;;104599;1283;544726;-71
2024/04/01 19:41:50;;;;;;;6.50;1.70;;;;;;;;;;103721;1292;545363;-70
2024/04/01 19:45:29;;;;;;;5.10;1.70;;;;;;;;;;103741;1289;545750;-70
2024/04/01 19:49:04;;;;;;;4.80;1.30;;;;;;;;;;103671;1292;545172;-71
2024/04/01 19:52:44;;;;;;;3.40;1.20;;;;;;;;;;103626;1293;545573;-71
2024/04/01 19:56:25;;;;;;;3.20;1.10;;;;;;;;;;103764;1289;544775;-71
2024/04/01 19:59:57;;;;;;;4.70;1.40;;;;;;;;;;103598;1289;544801;-69
2024/04/01 20:03:43;;;;;;;3.90;1.20;;;;;;;;;;103859;1289;545503;-69
2024/04/01 20:07:11;;;;;;;4.70;1.40;;;;;;;;;;103341;1298;545655;-70
2024/04/01 20:10:50;;;;;;;5.40;1.60;;;;;;;;;;103706;1289;545297;-69
2024/04/01 20:14:27;;;;;;;5.50;1.70;;;;;;;;;;104684;1281;544897;-71
2024/04/01 20:18:05;;;;;;;4.90;1.50;;;;;;;;;;103629;1289;545416;-69
2024/04/01 20:21:42;;;;;;;2.50;1.10;;;;;;;;;;103707;1292;545635;-70
2024/04/01 20:25:20;;;;;;;4.50;1.60;;;;;;;;;;103704;1292;544966;-71
2024/04/01 20:28:53;;;;;;;4.20;1.60;;;;;;;;;;103819;1289;544960;-71
2024/04/01 20:32:35;;;;;;;4.80;2.20;;;;;;;;;;103561;1292;545999;-73
2024/04/01 20:36:17;;;;;;;4.50;1.70;;;;;;;;;;103710;1299;544861;-70
2024/04/01 20:39:50;;;;;;;6.70;2.80;;;;;;;;;;104239;1283;544818;-71
2024/04/01 20:43:27;;;;;;;4.80;2.20;;;;;;;;;;103764;1290;544643;-77
2024/04/01 20:47:06;;;;;;;5.90;1.80;;;;;;;;;;103671;1292;545328;-70
2024/04/01 20:50:43;;;;;;;4.50;1.60;;;;;;;;;;103709;1290;545833;-71
2024/04/01 20:54:24;;;;;;;4.30;2.00;;;;;;;;;;103661;1289;545725;-68
2024/04/01 20:57:57;;;;;;;7.00;2.70;;;;;;;;;;103608;1295;545630;-70
2024/04/01 21:01:34;;;;;;;5.30;2.10;;;;;;;;;;103732;1289;546056;-70
2024/04/01 21:05:21;;;;;;;5.60;1.90;;;;;;;;;;103786;1292;546109;-68
2024/04/01 21:08:49;;;;;;;5.70;1.90;;;;;;;;;;103983;1288;544762;-71
2024/04/01 21:12:27;;;;;;;4.80;1.70;;;;;;;;;;104172;1284;545675;-73
2024/04/01 21:16:04;;;;;;;6.50;1.70;;;;;;;;;;104029;1286;545635;-69
2024/04/01 21:19:41;;;;;;;5.70;2.00;;;;;;;;;;104579;1286;545350;-69
2024/04/01 21:23:22;;;;;;;5.70;2.10;;;;;;;;;;103680;1291;545531;-73
2024/04/01 21:26:56;;;;;;;8.10;2.30;;;;;;;;;;103908;1289;545079;-69
2024/04/01 21:30:34;;;;;;;6.80;2.10;;;;;;;;;;103975;1288;544718;-69
2024/04/01 21:34:11;;;;;;;6.10;1.90;;;;;;;;;;103695;1292;544614;-69
2024/04/01 21:37:49;;;;;;;6.30;1.90;;;;;;;;;;103800;1291;545766;-71
2024/04/01 21:41:26;;;;;;;4.50;1.70;;;;;;;;;;103764;1292;544988;-70
2024/04/01 21:45:06;;;;;;;5.00;1.70;;;;;;;;;;103794;1292;544897;-70
2024/04/01 21:48:42;;;;;;;4.70;1.90;;;;;;;;;;103702;1289;544950;-70
2024/04/01 21:52:20;;;;;;;4.50;1.70;;;;;;;;;;103604;1289;544973;-69